createdAt,value
2023-02-26T00:02:15.914Z,10.90
2023-02-26T00:04:44.392Z,12.40
2023-02-26T00:07:12.567Z,13.40
2023-02-26T00:09:40.783Z,11.50
2023-02-26T00:12:12.792Z,12.10
2023-02-26T00:14:41.753Z,10.70
2023-02-26T00:17:37.447Z,10.70
2023-02-26T00:20:07.231Z,10.40
2023-02-26T00:22:36.447Z,10.50
2023-02-26T00:25:05.196Z,9.90
2023-02-26T00:27:33.453Z,10.20
2023-02-26T00:30:05.541Z,9.50
2023-02-26T00:32:35.326Z,8.80
2023-02-26T00:35:04.582Z,8.10
2023-02-26T00:37:49.145Z,8.80
2023-02-26T00:40:29.759Z,10.00
2023-02-26T00:42:58.225Z,9.80
2023-02-26T00:45:26.732Z,10.10
2023-02-26T00:48:21.314Z,9.30
2023-02-26T00:50:59.666Z,11.30
2023-02-26T00:53:36.533Z,13.60
2023-02-26T00:56:04.952Z,11.50
2023-02-26T00:58:33.119Z,12.00
2023-02-26T01:01:01.297Z,11.50
2023-02-26T01:03:32.513Z,10.40
2023-02-26T01:06:01.025Z,11.00
2023-02-26T01:08:37.880Z,10.50
2023-02-26T01:11:06.416Z,10.50
2023-02-26T01:13:35.008Z,10.10
2023-02-26T01:16:09.377Z,10.10
2023-02-26T01:19:13.762Z,10.50
2023-02-26T01:21:50.365Z,11.30
2023-02-26T01:24:21.763Z,12.10
2023-02-26T01:26:50.959Z,11.90
2023-02-26T01:29:19.451Z,12.50
2023-02-26T01:31:50.647Z,11.60
2023-02-26T01:34:26.563Z,12.30
2023-02-26T01:37:00.800Z,10.40
2023-02-26T01:39:48.702Z,11.20
2023-02-26T01:42:25.951Z,13.00
2023-02-26T01:45:17.577Z,11.60
2023-02-26T01:47:54.706Z,14.60
2023-02-26T01:50:30.045Z,13.90
2023-02-26T01:53:22.364Z,14.30
2023-02-26T01:56:00.389Z,12.60
2023-02-26T01:58:33.541Z,12.80
2023-02-26T02:01:02.750Z,12.50
2023-02-26T02:03:34.440Z,12.50
2023-02-26T02:06:08.785Z,11.90
2023-02-26T02:08:38.066Z,12.20
2023-02-26T02:11:10.380Z,12.00
2023-02-26T02:14:13.169Z,12.50
2023-02-26T02:16:47.403Z,11.90
2023-02-26T02:19:34.209Z,10.60
2023-02-26T02:22:33.832Z,10.30
2023-02-26T02:25:17.324Z,9.70
2023-02-26T02:28:02.967Z,10.00
2023-02-26T02:30:56.023Z,8.80
2023-02-26T02:33:33.263Z,9.20
2023-02-26T02:36:10.796Z,12.00
2023-02-26T02:39:03.376Z,10.70
2023-02-26T02:41:43.170Z,11.50
2023-02-26T02:44:16.003Z,11.90
2023-02-26T02:46:48.635Z,10.00
2023-02-26T02:49:34.403Z,10.20
2023-02-26T02:52:23.316Z,9.60
2023-02-26T02:54:56.165Z,9.60
2023-02-26T02:57:40.624Z,9.70
2023-02-26T03:00:14.142Z,9.50
2023-02-26T03:03:13.904Z,9.00
2023-02-26T03:05:43.074Z,8.20
2023-02-26T03:08:16.265Z,9.80
2023-02-26T03:10:48.194Z,10.00
2023-02-26T03:13:23.383Z,9.70
2023-02-26T03:16:30.202Z,9.10
2023-02-26T03:19:10.707Z,8.60
2023-02-26T03:21:50.494Z,10.00
2023-02-26T03:24:32.540Z,8.90
2023-02-26T03:27:08.015Z,9.00
2023-02-26T03:29:55.030Z,8.60
2023-02-26T03:32:31.592Z,9.90
2023-02-26T03:35:13.130Z,9.30
2023-02-26T03:37:47.037Z,8.10
2023-02-26T03:40:50.069Z,9.00
2023-02-26T03:43:33.629Z,9.30
2023-02-26T03:46:06.985Z,11.10
2023-02-26T03:48:36.946Z,9.40
2023-02-26T03:51:12.902Z,9.20
2023-02-26T03:54:00.395Z,10.80
2023-02-26T03:56:36.872Z,9.30
2023-02-26T03:59:25.022Z,8.70
2023-02-26T04:02:35.280Z,9.90
2023-02-26T04:05:18.891Z,8.20
2023-02-26T04:07:49.547Z,10.10
2023-02-26T04:10:21.811Z,8.80
2023-02-26T04:12:50.376Z,9.00
2023-02-26T04:15:18.713Z,9.40
2023-02-26T04:17:46.895Z,8.50
2023-02-26T04:20:15.343Z,9.00
2023-02-26T04:22:43.530Z,9.30
2023-02-26T04:25:11.777Z,8.60
2023-02-26T04:27:40.124Z,8.90
2023-02-26T04:30:09.475Z,8.40
2023-02-26T04:32:37.694Z,8.20
2023-02-26T04:35:07.790Z,8.70
2023-02-26T04:37:36.254Z,9.70
2023-02-26T04:40:05.144Z,8.00
2023-02-26T04:42:33.543Z,8.80
2023-02-26T04:45:01.751Z,9.10
2023-02-26T04:47:30.451Z,10.30
2023-02-26T04:49:58.649Z,10.30
2023-02-26T04:52:27.902Z,10.20
2023-02-26T04:54:56.158Z,9.70
2023-02-26T04:57:24.513Z,11.00
2023-02-26T04:59:53.154Z,10.60
2023-02-26T05:02:24.179Z,10.30
2023-02-26T05:04:53.478Z,11.00
2023-02-26T05:07:22.126Z,11.30
2023-02-26T05:09:50.807Z,11.10
2023-02-26T05:12:19.091Z,10.40
2023-02-26T05:14:47.931Z,9.50
2023-02-26T05:17:16.146Z,10.70
2023-02-26T05:19:44.437Z,9.60
2023-02-26T05:22:12.729Z,10.00
2023-02-26T05:24:42.182Z,10.00
2023-02-26T05:27:12.025Z,9.80
2023-02-26T05:29:45.122Z,9.40
2023-02-26T05:32:14.764Z,10.80
2023-02-26T05:34:43.090Z,8.80
2023-02-26T05:37:11.283Z,8.10
2023-02-26T05:39:41.624Z,8.90
2023-02-26T05:42:10.180Z,9.50
2023-02-26T05:44:38.405Z,8.30
2023-02-26T05:47:06.840Z,9.70
2023-02-26T05:49:35.355Z,9.10
2023-02-26T05:52:04.036Z,9.50
2023-02-26T05:54:32.209Z,10.70
2023-02-26T05:57:00.461Z,11.20
2023-02-26T05:59:28.635Z,10.40
2023-02-26T06:01:56.917Z,9.20
2023-02-26T06:04:25.235Z,8.40
2023-02-26T06:06:53.401Z,9.10
2023-02-26T06:09:21.592Z,7.50
2023-02-26T06:11:50.210Z,8.40
2023-02-26T06:14:18.443Z,8.10
2023-02-26T06:16:46.678Z,8.90
2023-02-26T06:19:14.933Z,8.50
2023-02-26T06:21:43.155Z,7.00
2023-02-26T06:24:11.343Z,7.20
2023-02-26T06:26:39.859Z,7.10
2023-02-26T06:29:08.746Z,7.90
2023-02-26T06:31:37.088Z,9.20
2023-02-26T06:34:05.331Z,8.90
2023-02-26T06:36:33.522Z,9.30
2023-02-26T06:39:01.785Z,10.00
2023-02-26T06:41:30.195Z,10.70
2023-02-26T06:43:58.402Z,10.10
2023-02-26T06:46:27.269Z,10.30
2023-02-26T06:48:55.745Z,12.90
2023-02-26T06:51:24.794Z,12.30
2023-02-26T06:53:53.007Z,11.10
2023-02-26T06:56:23.331Z,13.70
2023-02-26T06:58:52.616Z,12.00
2023-02-26T07:01:21.017Z,10.10
2023-02-26T07:03:50.478Z,10.80
2023-02-26T07:06:27.350Z,8.70
2023-02-26T07:08:56.461Z,8.50
2023-02-26T07:11:26.046Z,9.00
2023-02-26T07:13:55.266Z,8.20
2023-02-26T07:16:23.762Z,8.20
2023-02-26T07:18:52.209Z,7.50
2023-02-26T07:21:20.405Z,6.70
2023-02-26T07:23:49.732Z,7.00
2023-02-26T07:26:18.126Z,5.70
2023-02-26T07:28:46.350Z,6.60
2023-02-26T07:31:16.854Z,6.00
2023-02-26T07:33:45.183Z,6.50
2023-02-26T07:36:14.149Z,7.40
2023-02-26T07:38:43.224Z,7.40
2023-02-26T07:41:11.614Z,6.30
2023-02-26T07:43:40.736Z,6.90
2023-02-26T07:46:09.136Z,8.40
2023-02-26T07:48:37.873Z,7.30
2023-02-26T07:51:08.049Z,6.90
2023-02-26T07:53:36.323Z,6.30
2023-02-26T07:56:04.711Z,5.40
2023-02-26T07:58:33.287Z,5.90
2023-02-26T08:01:01.465Z,6.20
2023-02-26T08:03:29.671Z,11.30
2023-02-26T08:06:00.534Z,7.70
2023-02-26T08:08:29.557Z,9.20
2023-02-26T08:11:00.146Z,8.10
2023-02-26T08:13:28.443Z,6.90
2023-02-26T08:15:56.725Z,7.80
2023-02-26T08:18:25.066Z,7.90
2023-02-26T08:20:53.271Z,7.10
2023-02-26T08:23:21.534Z,7.20
2023-02-26T08:25:50.528Z,6.60
2023-02-26T08:28:18.767Z,7.00
2023-02-26T08:30:47.017Z,6.40
2023-02-26T08:33:15.249Z,7.10
2023-02-26T08:35:43.495Z,6.40
2023-02-26T08:38:12.241Z,7.20
2023-02-26T08:40:40.595Z,7.70
2023-02-26T08:43:09.551Z,7.20
2023-02-26T08:45:38.094Z,6.80
2023-02-26T08:48:08.871Z,7.10
2023-02-26T08:50:40.402Z,8.60
2023-02-26T08:53:08.612Z,7.70
2023-02-26T08:55:36.928Z,7.10
2023-02-26T08:58:05.368Z,6.90
2023-02-26T09:00:34.746Z,6.70
2023-02-26T09:03:03.784Z,7.10
2023-02-26T09:05:32.180Z,6.80
2023-02-26T09:08:00.750Z,7.70
2023-02-26T09:10:29.544Z,6.60
2023-02-26T09:12:58.419Z,5.50
2023-02-26T09:15:27.151Z,7.10
2023-02-26T09:17:56.353Z,6.40
2023-02-26T09:20:28.034Z,6.80
2023-02-26T09:22:56.348Z,6.40
2023-02-26T09:25:24.811Z,7.10
2023-02-26T09:27:53.049Z,7.10
2023-02-26T09:30:21.383Z,6.50
2023-02-26T09:32:49.737Z,7.50
2023-02-26T09:35:18.290Z,6.40
2023-02-26T09:37:48.173Z,7.00
2023-02-26T09:40:45.072Z,5.70
2023-02-26T09:43:42.172Z,7.20
2023-02-26T09:46:47.295Z,5.80
2023-02-26T09:49:38.531Z,7.00
2023-02-26T09:52:14.462Z,7.10
2023-02-26T09:54:51.140Z,7.10
2023-02-26T09:57:34.538Z,5.90
2023-02-26T10:00:17.617Z,5.90
2023-02-26T10:02:57.987Z,6.20
2023-02-26T10:05:58.055Z,6.10
2023-02-26T10:08:34.337Z,7.90
2023-02-26T10:11:34.569Z,6.50
2023-02-26T10:14:07.395Z,6.50
2023-02-26T10:16:41.441Z,7.10
2023-02-26T10:19:27.622Z,5.60
2023-02-26T10:22:06.262Z,7.00
2023-02-26T10:24:49.024Z,5.80
2023-02-26T10:27:23.960Z,7.70
2023-02-26T10:30:04.322Z,7.10
2023-02-26T10:32:41.578Z,7.60
2023-02-26T10:35:17.181Z,6.80
2023-02-26T10:38:01.128Z,7.20
2023-02-26T10:40:45.408Z,9.00
2023-02-26T10:43:23.101Z,6.60
2023-02-26T10:46:23.490Z,7.60
2023-02-26T10:49:19.460Z,8.40
2023-02-26T10:51:48.656Z,7.50
2023-02-26T10:54:24.983Z,8.70
2023-02-26T10:56:53.352Z,7.60
2023-02-26T10:59:21.595Z,7.20
2023-02-26T11:01:52.004Z,7.10
2023-02-26T11:04:26.385Z,5.70
2023-02-26T11:07:00.282Z,6.90
2023-02-26T11:09:31.210Z,6.30
2023-02-26T11:12:11.404Z,6.60
2023-02-26T11:14:40.605Z,6.10
2023-02-26T11:17:18.245Z,7.70
2023-02-26T11:20:03.154Z,6.10
2023-02-26T11:22:36.465Z,6.80
2023-02-26T11:25:07.142Z,8.00
2023-02-26T11:27:38.029Z,6.80
2023-02-26T11:30:36.933Z,6.10
2023-02-26T11:33:17.156Z,7.00
2023-02-26T11:35:49.184Z,6.50
2023-02-26T11:38:22.790Z,5.90
2023-02-26T11:40:56.333Z,6.40
2023-02-26T11:43:44.446Z,6.70
2023-02-26T11:46:15.155Z,7.80
2023-02-26T11:48:48.709Z,6.80
2023-02-26T11:51:25.092Z,7.00
2023-02-26T11:53:54.971Z,5.80
2023-02-26T11:56:32.054Z,5.70
2023-02-26T11:59:08.916Z,6.70
2023-02-26T12:01:38.244Z,8.30
2023-02-26T12:04:11.379Z,6.30
2023-02-26T12:06:40.182Z,7.00
2023-02-26T12:09:15.206Z,7.10
2023-02-26T12:11:59.684Z,7.60
2023-02-26T12:14:40.017Z,7.80
2023-02-26T12:17:47.210Z,8.00
2023-02-26T12:20:27.697Z,6.90
2023-02-26T12:23:08.205Z,6.40
2023-02-26T12:25:53.895Z,6.20
2023-02-26T12:28:50.284Z,6.80
2023-02-26T12:31:21.114Z,6.80
2023-02-26T12:34:08.583Z,6.40
2023-02-26T12:36:49.885Z,5.70
2023-02-26T12:39:30.897Z,5.80
2023-02-26T12:42:07.341Z,6.80
2023-02-26T12:44:38.292Z,6.50
2023-02-26T12:47:38.480Z,6.30
2023-02-26T12:50:40.441Z,6.40
2023-02-26T12:53:14.424Z,6.50
2023-02-26T12:56:10.807Z,5.80
2023-02-26T12:58:48.149Z,5.40
2023-02-26T13:01:36.985Z,6.60
2023-02-26T13:04:20.066Z,6.40
2023-02-26T13:06:51.711Z,7.40
2023-02-26T13:09:31.282Z,6.20
2023-02-26T13:12:16.475Z,5.50
2023-02-26T13:15:18.185Z,5.80
2023-02-26T13:17:53.053Z,6.50
2023-02-26T13:20:25.768Z,4.20
2023-02-26T13:22:59.837Z,6.80
2023-02-26T13:25:51.903Z,5.60
2023-02-26T13:28:23.081Z,5.20
2023-02-26T13:30:56.193Z,5.60
2023-02-26T13:33:30.443Z,6.10
2023-02-26T13:36:01.387Z,5.80
2023-02-26T13:38:57.786Z,6.60
2023-02-26T13:41:56.970Z,5.00
2023-02-26T13:44:33.336Z,5.60
2023-02-26T13:47:28.998Z,5.70
2023-02-26T13:50:06.176Z,5.80
2023-02-26T13:52:37.163Z,5.40
2023-02-26T13:55:06.134Z,6.10
2023-02-26T13:57:48.614Z,5.40
2023-02-26T14:00:35.254Z,6.80
2023-02-26T14:03:31.143Z,6.50
2023-02-26T14:06:20.595Z,5.90
2023-02-26T14:08:57.542Z,6.80
2023-02-26T14:11:46.041Z,6.30
2023-02-26T14:14:23.221Z,5.30
2023-02-26T14:17:03.830Z,5.90
2023-02-26T14:19:37.629Z,5.70
2023-02-26T14:22:36.105Z,9.70
2023-02-26T14:25:16.866Z,5.90
2023-02-26T14:27:48.201Z,6.00
2023-02-26T14:30:34.685Z,6.30
2023-02-26T14:33:10.001Z,7.10
2023-02-26T14:35:45.370Z,7.20
2023-02-26T14:38:25.198Z,7.90
2023-02-26T14:41:02.526Z,6.90
2023-02-26T14:43:38.549Z,6.40
2023-02-26T14:46:08.965Z,6.90
2023-02-26T14:48:38.900Z,7.80
2023-02-26T14:51:28.994Z,6.50
2023-02-26T14:54:03.279Z,6.70
2023-02-26T14:56:46.969Z,6.90
2023-02-26T14:59:33.791Z,6.10
2023-02-26T15:02:16.963Z,7.40
2023-02-26T15:05:16.293Z,8.20
2023-02-26T15:08:05.951Z,6.50
2023-02-26T15:11:00.906Z,6.50
2023-02-26T15:14:07.425Z,7.60
2023-02-26T15:16:55.848Z,6.90
2023-02-26T15:20:38.334Z,7.90
2023-02-26T15:23:15.666Z,7.20
2023-02-26T15:25:47.144Z,6.90
2023-02-26T15:28:29.449Z,7.00
2023-02-26T15:31:01.002Z,6.80
2023-02-26T15:33:30.583Z,8.50
2023-02-26T15:36:00.096Z,7.90
2023-02-26T15:38:28.320Z,8.50
2023-02-26T15:41:01.236Z,7.60
2023-02-26T15:43:30.143Z,7.00
2023-02-26T15:46:01.261Z,8.30
2023-02-26T15:48:42.378Z,8.30
2023-02-26T15:51:13.958Z,7.50
2023-02-26T15:53:49.546Z,8.80
2023-02-26T15:56:25.468Z,8.90
2023-02-26T15:59:01.075Z,8.90
2023-02-26T16:01:30.903Z,9.30
2023-02-26T16:04:06.164Z,7.10
2023-02-26T16:06:41.725Z,8.50
2023-02-26T16:09:18.899Z,7.70
2023-02-26T16:11:49.281Z,8.70
2023-02-26T16:14:32.658Z,8.50
2023-02-26T16:17:01.090Z,7.40
2023-02-26T16:19:43.915Z,7.30
2023-02-26T16:22:19.873Z,7.70
2023-02-26T16:24:56.316Z,6.20
2023-02-26T16:27:28.554Z,7.60
2023-02-26T16:29:59.538Z,8.60
2023-02-26T16:32:32.037Z,8.90
2023-02-26T16:35:08.999Z,9.20
2023-02-26T16:37:38.125Z,9.50
2023-02-26T16:40:20.306Z,8.70
2023-02-26T16:42:51.479Z,8.80
2023-02-26T16:45:38.091Z,8.70
2023-02-26T16:48:14.686Z,8.70
2023-02-26T16:50:43.204Z,10.20
2023-02-26T16:53:21.003Z,10.00
2023-02-26T16:55:55.922Z,8.90
2023-02-26T16:58:24.360Z,8.20
2023-02-26T17:01:02.316Z,9.40
2023-02-26T17:03:32.885Z,10.30
2023-02-26T17:06:05.575Z,9.70
2023-02-26T17:08:42.308Z,11.10
2023-02-26T17:11:24.335Z,10.10
2023-02-26T17:14:17.543Z,10.70
2023-02-26T17:16:47.403Z,9.60
2023-02-26T17:19:16.297Z,9.70
2023-02-26T17:21:49.134Z,9.90
2023-02-26T17:24:20.617Z,10.40
2023-02-26T17:26:49.059Z,8.70
2023-02-26T17:29:31.261Z,9.90
2023-02-26T17:31:59.759Z,9.70
2023-02-26T17:34:28.239Z,9.20
2023-02-26T17:36:57.429Z,11.30
2023-02-26T17:39:26.213Z,9.90
2023-02-26T17:41:55.158Z,10.80
2023-02-26T17:44:25.583Z,9.00
2023-02-26T17:46:54.511Z,12.10
2023-02-26T17:49:22.888Z,11.40
2023-02-26T17:51:54.291Z,10.70
2023-02-26T17:54:22.610Z,10.50
2023-02-26T17:56:50.931Z,10.70
2023-02-26T17:59:19.200Z,9.50
2023-02-26T18:01:49.699Z,8.40
2023-02-26T18:04:17.958Z,9.70
2023-02-26T18:06:46.348Z,9.80
2023-02-26T18:09:15.069Z,7.60
2023-02-26T18:11:43.475Z,7.50
2023-02-26T18:14:12.395Z,6.70
2023-02-26T18:16:45.637Z,5.90
2023-02-26T18:19:15.497Z,6.70
2023-02-26T18:21:43.719Z,5.80
2023-02-26T18:24:11.954Z,6.20
2023-02-26T18:26:40.231Z,7.90
2023-02-26T18:29:08.428Z,5.00
2023-02-26T18:31:37.309Z,7.10
2023-02-26T18:34:05.898Z,7.10
2023-02-26T18:36:39.507Z,5.80
2023-02-26T18:39:12.545Z,7.00
2023-02-26T18:41:42.326Z,6.10
2023-02-26T18:44:11.304Z,6.10
2023-02-26T18:46:42.927Z,5.80
2023-02-26T18:49:18.470Z,6.90
2023-02-26T18:51:49.888Z,5.80
2023-02-26T18:54:18.267Z,6.20
2023-02-26T18:56:47.373Z,6.90
2023-02-26T18:59:15.681Z,5.60
2023-02-26T19:01:44.027Z,5.40
2023-02-26T19:04:12.318Z,6.70
2023-02-26T19:06:40.690Z,6.10
2023-02-26T19:09:09.756Z,7.30
2023-02-26T19:11:42.599Z,5.90
2023-02-26T19:14:11.253Z,6.80
2023-02-26T19:16:41.385Z,7.00
2023-02-26T19:19:12.578Z,6.40
2023-02-26T19:21:41.242Z,5.50
2023-02-26T19:24:12.919Z,5.90
2023-02-26T19:26:42.240Z,6.50
2023-02-26T19:29:14.242Z,5.60
2023-02-26T19:31:43.858Z,5.50
2023-02-26T19:34:12.995Z,6.10
2023-02-26T19:36:45.407Z,5.30
2023-02-26T19:39:16.313Z,6.30
2023-02-26T19:41:45.984Z,5.80
2023-02-26T19:44:14.311Z,6.10
2023-02-26T19:46:43.563Z,5.90
2023-02-26T19:49:12.301Z,5.80
2023-02-26T19:51:40.558Z,5.60
2023-02-26T19:54:09.756Z,5.50
2023-02-26T19:56:39.546Z,5.80
2023-02-26T19:59:07.952Z,5.90
2023-02-26T20:01:36.444Z,5.10
2023-02-26T20:04:04.689Z,5.30
2023-02-26T20:06:33.505Z,6.30
2023-02-26T20:09:02.415Z,5.40
2023-02-26T20:11:31.464Z,5.80
2023-02-26T20:13:59.904Z,5.20
2023-02-26T20:16:28.253Z,4.50
2023-02-26T20:18:56.539Z,5.60
2023-02-26T20:21:27.455Z,6.20
2023-02-26T20:23:57.733Z,5.60
2023-02-26T20:26:26.388Z,5.00
2023-02-26T20:28:54.623Z,6.00
2023-02-26T20:31:23.006Z,5.40
2023-02-26T20:33:51.451Z,5.10
2023-02-26T20:36:20.126Z,5.30
2023-02-26T20:38:50.848Z,5.70
2023-02-26T20:41:19.308Z,6.30
2023-02-26T20:43:48.008Z,7.90
2023-02-26T20:46:16.253Z,6.30
2023-02-26T20:48:45.016Z,7.90
2023-02-26T20:51:13.399Z,7.10
2023-02-26T20:53:42.573Z,6.70
2023-02-26T20:56:10.768Z,6.30
2023-02-26T20:58:40.308Z,6.60
2023-02-26T21:01:08.750Z,5.70
2023-02-26T21:03:37.030Z,5.80
2023-02-26T21:06:05.897Z,5.70
2023-02-26T21:08:34.835Z,6.80
2023-02-26T21:11:03.008Z,6.10
2023-02-26T21:13:31.191Z,7.60
2023-02-26T21:15:59.405Z,6.30
2023-02-26T21:18:27.609Z,6.70
2023-02-26T21:20:55.861Z,6.40
2023-02-26T21:23:24.004Z,7.60
2023-02-26T21:25:52.319Z,6.70
2023-02-26T21:28:20.516Z,6.10
2023-02-26T21:30:52.372Z,7.00
2023-02-26T21:33:20.856Z,6.70
2023-02-26T21:35:52.774Z,6.50
2023-02-26T21:38:21.500Z,5.50
2023-02-26T21:40:49.909Z,6.20
2023-02-26T21:43:18.472Z,7.30
2023-02-26T21:45:48.721Z,8.00
2023-02-26T21:48:16.962Z,7.70
2023-02-26T21:50:47.615Z,8.20
2023-02-26T21:53:15.798Z,8.60
2023-02-26T21:55:44.004Z,8.20
2023-02-26T21:58:15.150Z,7.30
2023-02-26T22:00:43.851Z,8.30
2023-02-26T22:03:12.055Z,8.00
2023-02-26T22:05:40.243Z,6.90
2023-02-26T22:08:08.794Z,7.80
2023-02-26T22:10:37.062Z,6.10
2023-02-26T22:13:05.358Z,5.80
2023-02-26T22:15:33.649Z,5.40
2023-02-26T22:18:01.871Z,5.40
2023-02-26T22:20:30.694Z,5.70
2023-02-26T22:22:58.959Z,5.60
2023-02-26T22:25:27.186Z,6.20
2023-02-26T22:27:55.369Z,6.40
2023-02-26T22:30:24.055Z,5.70
2023-02-26T22:32:52.347Z,5.80
2023-02-26T22:35:20.607Z,6.20
2023-02-26T22:37:49.961Z,7.50
2023-02-26T22:40:19.663Z,7.50
2023-02-26T22:42:47.906Z,6.40
2023-02-26T22:45:17.702Z,6.70
2023-02-26T22:47:48.222Z,6.80
2023-02-26T22:50:17.953Z,8.80
2023-02-26T22:52:46.215Z,7.30
2023-02-26T22:55:14.519Z,6.30
2023-02-26T22:57:42.813Z,6.80
2023-02-26T23:00:15.150Z,6.40
2023-02-26T23:02:43.471Z,6.10
2023-02-26T23:05:12.312Z,7.40
2023-02-26T23:07:41.225Z,8.20
2023-02-26T23:10:12.687Z,8.30
2023-02-26T23:12:41.863Z,6.90
2023-02-26T23:15:10.889Z,7.20
2023-02-26T23:17:39.735Z,6.60
2023-02-26T23:20:13.944Z,5.90
2023-02-26T23:22:43.945Z,5.90
2023-02-26T23:25:12.740Z,5.90
2023-02-26T23:27:41.138Z,5.80
2023-02-26T23:30:10.716Z,5.80
2023-02-26T23:32:38.969Z,7.00
2023-02-26T23:35:07.688Z,5.80
2023-02-26T23:37:36.402Z,5.70
2023-02-26T23:40:05.846Z,4.70
2023-02-26T23:42:34.350Z,4.40
2023-02-26T23:45:02.809Z,5.10
2023-02-26T23:47:31.130Z,5.10
2023-02-26T23:49:59.442Z,5.50
2023-02-26T23:52:27.815Z,4.70
2023-02-26T23:54:57.575Z,5.20
2023-02-26T23:57:25.888Z,5.00
2023-02-26T23:59:54.176Z,5.10
